الصفحة الرئيسية
METAR-TAF:

METAR-TAF

مطار :

Qikiqtarjuaq, نونافوت, كندا

دائرة عرض: 67-33N, خط طول: 064-02W, ارتفاع: 6 متر

مراقبة الطقس الحالي

تاريخ ووقت الإصدار 42 دقيقة قبل الساعة 05:00UTC
رياح هادئة
درجة الحرارة -5°درجة مئوية
الرطوبة 68%
ضغط 1031 hPa
الرؤية: 14.5 كم
سماء صافية

METAR: CYVM 190500Z AUTO 00000KT 9SM CLR M05/M10 A3045 RMK SLP316

زمن: 01:42 (05:42 UTC)

توقعات

تاريخ ووقت الإصدار 5ساعات و 2 دقيقة قبل الساعة 00:40UTC
التوقعات صالحة من19 الساعة 01 UTC إلى 19 الساعة 13 UTC
ريح 3 عقدةمن اتجاهات متغيرة
الرؤية: 10 كم
غيوم قليلة على ارتفاع 15000 قدم
غيوم متفرقة على ارتفاع 25000 قدم
أصبح
من 19 الساعة 08 UTC إلى 19 الساعة 10 UTC
ريح 12 عقدة من الشمال/الشمال الغربي

TAF: CYVM 190040Z 1901/1913 VRB03KT P6SM FEW150 SCT250 BECMG 1908/1910 33012KT RMK FCST BASED ON AUTO OBS. NXT FCST BY 190700Z

أرصاد الطقس والتوقعات من أكثر من 4000 مطار (تقارير الطقس للمطار METAR والتنبؤ بالطقس بالمطارTAF).

المحطات المتاحة هي النقط الصفراء والحمراء على الخريطة.

حرك المؤشر فوق النقطة لمعرفة اسم المحطة.

ثم انقر لمعرفة أرصاد وتوقعات الطقس.

لتغيير الخارطة: اضغط على الأزرار الخضراء مع رمز الصليب الأسود للتكبير. على الزر الأخضر مع شرطة للتصغير، أو على الأسهم الخضراء للخرائط المجاورة.


METAR-TAF: